createdAt,value
2018-12-06T00:00:05.423Z,1.90
2018-12-06T00:01:05.412Z,1.84
2018-12-06T00:02:05.404Z,1.77
2018-12-06T00:03:05.387Z,1.76
2018-12-06T00:04:05.384Z,1.79
2018-12-06T00:05:05.372Z,1.80
2018-12-06T00:06:05.355Z,1.80
2018-12-06T00:07:05.345Z,1.79
2018-12-06T00:08:05.332Z,1.84
2018-12-06T00:09:05.326Z,1.79
2018-12-06T00:10:05.315Z,1.83
2018-12-06T00:11:05.311Z,1.79
2018-12-06T00:12:05.307Z,1.83
2018-12-06T00:13:05.283Z,1.80
2018-12-06T00:14:05.273Z,1.73
2018-12-06T00:15:05.255Z,1.79
2018-12-06T00:16:05.253Z,1.81
2018-12-06T00:17:05.238Z,1.83
2018-12-06T00:18:05.234Z,1.79
2018-12-06T00:19:05.230Z,1.79
2018-12-06T00:20:05.209Z,1.80
2018-12-06T00:21:05.193Z,1.73
2018-12-06T00:22:05.185Z,1.77
2018-12-06T00:23:05.174Z,1.80
2018-12-06T00:24:05.164Z,1.79
2018-12-06T00:25:05.158Z,1.77
2018-12-06T00:26:05.150Z,1.79
2018-12-06T00:27:05.133Z,1.73
2018-12-06T00:28:05.126Z,1.79
2018-12-06T00:29:05.120Z,1.76
2018-12-06T00:30:05.102Z,1.80
2018-12-06T00:31:05.094Z,1.76
2018-12-06T00:32:05.086Z,1.73
2018-12-06T00:33:05.072Z,1.76
2018-12-06T00:34:05.058Z,1.81
2018-12-06T00:35:05.053Z,1.80
2018-12-06T00:36:05.049Z,1.79
2018-12-06T00:37:05.026Z,1.81
2018-12-06T00:38:05.022Z,1.76
2018-12-06T00:39:05.010Z,1.70
2018-12-06T00:40:04.995Z,1.81
2018-12-06T00:41:05.006Z,1.76
2018-12-06T00:42:04.979Z,1.77
2018-12-06T00:43:04.965Z,1.73
2018-12-06T00:44:04.956Z,1.72
2018-12-06T00:45:04.944Z,1.80
2018-12-06T00:46:04.934Z,1.81
2018-12-06T00:47:04.925Z,1.72
2018-12-06T00:48:04.913Z,1.80
2018-12-06T00:49:04.907Z,1.69
2018-12-06T00:50:04.895Z,1.68
2018-12-06T00:51:04.883Z,1.80
2018-12-06T00:52:04.870Z,1.70
2018-12-06T00:53:04.862Z,1.76
2018-12-06T00:54:04.852Z,1.80
2018-12-06T00:55:04.839Z,1.87
2018-12-06T00:56:04.829Z,1.80
2018-12-06T00:57:04.818Z,1.80
2018-12-06T00:58:04.807Z,1.79
2018-12-06T00:59:04.793Z,1.77
2018-12-06T01:00:04.790Z,1.81
2018-12-06T01:01:04.781Z,1.80
2018-12-06T01:02:04.765Z,1.76
2018-12-06T01:03:04.758Z,1.76
2018-12-06T01:04:04.744Z,1.84
2018-12-06T01:05:04.739Z,1.76
2018-12-06T01:06:04.722Z,1.77
2018-12-06T01:07:04.714Z,1.84
2018-12-06T01:08:04.701Z,1.77
2018-12-06T01:09:04.698Z,1.81
2018-12-06T01:10:04.679Z,1.81
2018-12-06T01:11:04.670Z,1.79
2018-12-06T01:12:04.657Z,1.73
2018-12-06T01:13:04.653Z,1.73
2018-12-06T01:14:04.637Z,1.77
2018-12-06T01:15:04.621Z,1.80
2018-12-06T01:16:04.618Z,1.83
2018-12-06T01:17:04.607Z,1.84
2018-12-06T01:18:04.591Z,1.79
2018-12-06T01:19:04.591Z,1.84
2018-12-06T01:20:04.577Z,1.77
2018-12-06T01:21:04.562Z,1.86
2018-12-06T01:22:04.554Z,1.79
2018-12-06T01:23:04.543Z,1.79
2018-12-06T01:24:04.534Z,1.86
2018-12-06T01:25:04.520Z,1.84
2018-12-06T01:26:04.507Z,1.79
2018-12-06T01:27:04.497Z,1.84
2018-12-06T01:28:04.487Z,1.80
2018-12-06T01:29:04.483Z,1.86
2018-12-06T01:30:04.465Z,1.87
2018-12-06T01:31:04.454Z,1.81
2018-12-06T01:32:04.446Z,1.87
2018-12-06T01:33:04.431Z,1.83
2018-12-06T01:34:04.425Z,1.86
2018-12-06T01:35:04.410Z,1.80
2018-12-06T01:36:04.402Z,1.81
2018-12-06T01:37:04.387Z,1.84
2018-12-06T01:38:04.381Z,1.87
2018-12-06T01:39:04.388Z,1.87
2018-12-06T01:40:04.357Z,1.88
2018-12-06T01:41:04.356Z,1.88
2018-12-06T01:42:04.341Z,1.93
2018-12-06T01:43:04.329Z,1.87
2018-12-06T01:44:04.315Z,1.84
2018-12-06T01:45:04.307Z,1.88
2018-12-06T01:46:04.300Z,1.80
2018-12-06T01:47:04.284Z,1.93
2018-12-06T01:48:04.275Z,1.79
2018-12-06T01:49:04.265Z,1.79
2018-12-06T01:50:04.260Z,1.81
2018-12-06T01:51:04.243Z,1.87
2018-12-06T01:52:04.231Z,1.86
2018-12-06T01:53:04.222Z,1.86
2018-12-06T01:54:04.211Z,1.86
2018-12-06T01:55:04.204Z,1.81
2018-12-06T01:56:04.194Z,1.83
2018-12-06T01:57:04.181Z,1.83
2018-12-06T01:58:04.170Z,1.90
2018-12-06T01:59:04.158Z,1.80
2018-12-06T02:00:04.146Z,1.81
2018-12-06T02:01:04.136Z,1.81
2018-12-06T02:02:04.131Z,1.91
2018-12-06T02:03:04.114Z,1.88
2018-12-06T02:04:04.103Z,1.87
2018-12-06T02:05:04.098Z,1.91
2018-12-06T02:06:04.084Z,1.80
2018-12-06T02:07:04.070Z,1.93
2018-12-06T02:08:04.068Z,1.88
2018-12-06T02:09:04.048Z,1.87
2018-12-06T02:10:04.043Z,1.88
2018-12-06T02:11:04.031Z,1.86
2018-12-06T02:12:04.017Z,1.87
2018-12-06T02:13:04.015Z,1.86
2018-12-06T02:14:04.003Z,1.88
2018-12-06T02:15:03.988Z,1.86
2018-12-06T02:16:03.980Z,1.87
2018-12-06T02:17:03.967Z,1.91
2018-12-06T02:18:03.956Z,1.90
2018-12-06T02:19:03.947Z,1.90
2018-12-06T02:20:03.936Z,1.90
2018-12-06T02:21:03.932Z,1.91
2018-12-06T02:22:03.921Z,1.95
2018-12-06T02:23:03.906Z,1.91
2018-12-06T02:24:03.892Z,1.98
2018-12-06T02:25:03.883Z,1.91
2018-12-06T02:26:03.877Z,1.90
2018-12-06T02:27:03.867Z,1.90
2018-12-06T02:28:03.851Z,1.93
2018-12-06T02:29:03.841Z,2.00
2018-12-06T02:30:03.828Z,2.06
2018-12-06T02:31:03.822Z,2.02
2018-12-06T02:32:03.808Z,1.99
2018-12-06T02:33:03.797Z,2.09
2018-12-06T02:34:03.788Z,2.05
2018-12-06T02:35:03.780Z,2.03
2018-12-06T02:36:03.768Z,2.07
2018-12-06T02:37:03.754Z,1.98
2018-12-06T02:38:03.742Z,1.91
2018-12-06T02:39:03.734Z,1.99
2018-12-06T02:40:03.725Z,2.00
2018-12-06T02:41:03.712Z,2.07
2018-12-06T02:42:03.703Z,2.06
2018-12-06T02:43:03.693Z,2.06
2018-12-06T02:44:03.680Z,2.03
2018-12-06T02:45:03.679Z,1.99
2018-12-06T02:46:03.660Z,2.05
2018-12-06T02:47:03.652Z,2.00
2018-12-06T02:48:03.635Z,2.00
2018-12-06T02:49:03.626Z,2.06
2018-12-06T02:50:03.618Z,2.10
2018-12-06T02:51:03.610Z,2.10
2018-12-06T02:52:03.594Z,2.12
2018-12-06T02:53:03.599Z,2.10
2018-12-06T02:54:03.570Z,2.05
2018-12-06T02:55:03.566Z,2.06
2018-12-06T02:56:03.555Z,2.07
2018-12-06T02:57:03.536Z,2.00
2018-12-06T02:58:03.528Z,2.10
2018-12-06T02:59:03.516Z,2.00
2018-12-06T03:00:03.512Z,2.09
2018-12-06T03:01:03.511Z,2.07
2018-12-06T03:02:03.487Z,2.09
2018-12-06T03:03:03.478Z,2.09
2018-12-06T03:04:03.464Z,2.05
2018-12-06T03:05:03.452Z,2.07
2018-12-06T03:06:03.446Z,2.06
2018-12-06T03:07:03.430Z,2.07
2018-12-06T03:08:03.429Z,2.12
2018-12-06T03:09:03.414Z,2.10
2018-12-06T03:10:03.404Z,2.10
2018-12-06T03:11:03.387Z,2.09
2018-12-06T03:12:03.380Z,2.14
2018-12-06T03:13:03.366Z,2.05
2018-12-06T03:14:03.366Z,2.09
2018-12-06T03:15:03.349Z,2.12
2018-12-06T03:16:03.341Z,2.14
2018-12-06T03:17:03.332Z,2.07
2018-12-06T03:18:03.323Z,2.10
2018-12-06T03:19:03.312Z,2.02
2018-12-06T03:20:03.297Z,2.07
2018-12-06T03:21:03.309Z,2.18
2018-12-06T03:22:03.277Z,2.14
2018-12-06T03:23:03.260Z,2.16
2018-12-06T03:24:03.257Z,2.21
2018-12-06T03:25:03.246Z,2.23
2018-12-06T03:26:03.231Z,2.21
2018-12-06T03:27:03.230Z,2.17
2018-12-06T03:28:03.217Z,2.23
2018-12-06T03:29:03.204Z,2.16
2018-12-06T03:30:03.199Z,2.16
2018-12-06T03:31:03.182Z,2.21
2018-12-06T03:32:03.176Z,2.27
2018-12-06T03:33:03.166Z,2.18
2018-12-06T03:34:03.148Z,2.30
2018-12-06T03:35:03.143Z,2.25
2018-12-06T03:36:03.133Z,2.25
2018-12-06T03:37:03.133Z,2.20
2018-12-06T03:38:03.113Z,2.27
2018-12-06T03:39:03.101Z,2.28
2018-12-06T03:40:03.087Z,2.31
2018-12-06T03:41:03.075Z,2.17
2018-12-06T03:42:03.068Z,2.27
2018-12-06T03:43:03.062Z,2.34
2018-12-06T03:44:03.052Z,2.34
2018-12-06T03:45:03.043Z,2.28
2018-12-06T03:46:03.024Z,2.27
2018-12-06T03:47:03.015Z,2.35
2018-12-06T03:48:03.083Z,2.36
2018-12-06T03:49:02.998Z,2.27
2018-12-06T03:50:03.000Z,2.34
2018-12-06T03:51:02.969Z,2.42
2018-12-06T03:52:02.961Z,2.36
2018-12-06T03:53:02.954Z,2.52
2018-12-06T03:54:02.946Z,2.48
2018-12-06T03:55:02.941Z,2.49
2018-12-06T03:56:02.925Z,2.48
2018-12-06T03:57:02.913Z,2.49
2018-12-06T03:58:03.016Z,2.48
2018-12-06T03:59:02.889Z,2.46
2018-12-06T04:00:02.892Z,2.56
2018-12-06T04:01:02.869Z,2.52
2018-12-06T04:02:02.871Z,2.53
2018-12-06T04:03:02.846Z,2.63
2018-12-06T04:04:02.837Z,2.54
2018-12-06T04:05:02.826Z,2.60
2018-12-06T04:06:02.818Z,2.69
2018-12-06T04:07:02.807Z,2.67
2018-12-06T04:08:02.800Z,2.66
2018-12-06T04:09:02.782Z,2.67
2018-12-06T04:10:02.776Z,2.64
2018-12-06T04:11:02.761Z,2.74
2018-12-06T04:12:02.745Z,2.63
2018-12-06T04:13:02.743Z,2.69
2018-12-06T04:14:02.725Z,2.75
2018-12-06T04:15:02.716Z,2.72
2018-12-06T04:16:02.707Z,2.67
2018-12-06T04:17:02.695Z,2.71
2018-12-06T04:18:02.680Z,2.66
2018-12-06T04:19:02.673Z,2.74
2018-12-06T04:20:02.705Z,2.77
2018-12-06T04:21:02.654Z,2.72
2018-12-06T04:22:02.644Z,2.77
2018-12-06T04:23:02.642Z,2.77
2018-12-06T04:24:02.618Z,2.74
2018-12-06T04:25:02.617Z,2.78
2018-12-06T04:26:02.598Z,2.59
2018-12-06T04:27:02.594Z,2.72
2018-12-06T04:28:02.579Z,2.74
2018-12-06T04:29:02.574Z,2.81
2018-12-06T04:30:02.555Z,2.74
2018-12-06T04:31:02.546Z,2.69
2018-12-06T04:32:02.533Z,2.77
2018-12-06T04:33:02.550Z,2.75
2018-12-06T04:34:02.512Z,2.77
2018-12-06T04:35:02.512Z,2.77
2018-12-06T04:36:02.492Z,2.77
2018-12-06T04:37:02.607Z,2.74
2018-12-06T04:38:02.476Z,2.79
2018-12-06T04:39:02.464Z,2.87
2018-12-06T04:40:02.450Z,2.79
2018-12-06T04:41:02.441Z,2.85
2018-12-06T04:42:02.428Z,2.84
2018-12-06T04:43:02.419Z,2.82
2018-12-06T04:44:02.411Z,2.90
2018-12-06T04:45:02.398Z,2.87
2018-12-06T04:46:02.390Z,2.90
2018-12-06T04:47:02.377Z,2.84
2018-12-06T04:48:02.368Z,2.89
2018-12-06T04:49:02.352Z,2.87
2018-12-06T04:50:02.345Z,2.95
2018-12-06T04:51:02.373Z,2.82
2018-12-06T04:52:02.322Z,2.93
2018-12-06T04:53:02.312Z,2.84
2018-12-06T04:54:02.309Z,2.90
2018-12-06T04:55:02.301Z,2.84
2018-12-06T04:56:02.280Z,2.82
2018-12-06T04:57:02.273Z,2.84
2018-12-06T04:58:02.259Z,2.78
2018-12-06T04:59:02.253Z,2.92
2018-12-06T05:00:02.240Z,2.79
2018-12-06T05:01:02.224Z,2.84
2018-12-06T05:02:02.220Z,2.85
2018-12-06T05:03:02.200Z,2.82
2018-12-06T05:04:02.198Z,2.89
2018-12-06T05:05:02.187Z,2.87
2018-12-06T05:06:02.174Z,2.95
2018-12-06T05:07:02.165Z,2.89
2018-12-06T05:08:02.146Z,2.95
2018-12-06T05:09:02.148Z,2.87
2018-12-06T05:10:02.129Z,2.90
2018-12-06T05:11:02.121Z,2.84
2018-12-06T05:12:02.108Z,2.84
2018-12-06T05:13:02.142Z,2.85
2018-12-06T05:14:02.082Z,2.95
2018-12-06T05:15:02.074Z,2.92
2018-12-06T05:16:02.064Z,2.85
2018-12-06T05:17:02.052Z,2.93
2018-12-06T05:18:02.047Z,2.92
2018-12-06T05:19:02.032Z,2.89
2018-12-06T05:20:02.022Z,2.90
2018-12-06T05:21:02.061Z,2.90
2018-12-06T05:22:02.001Z,2.92
2018-12-06T05:23:01.990Z,2.97
2018-12-06T05:24:01.985Z,2.92
2018-12-06T05:25:01.971Z,2.95
2018-12-06T05:26:01.959Z,3.02
2018-12-06T05:27:01.951Z,2.97
2018-12-06T05:28:01.942Z,2.89
2018-12-06T05:29:01.925Z,2.96
2018-12-06T05:30:01.914Z,2.96
2018-12-06T05:31:01.906Z,2.92
2018-12-06T05:32:01.892Z,2.99
2018-12-06T05:33:01.878Z,2.99
2018-12-06T05:34:01.874Z,3.05
2018-12-06T05:35:01.864Z,2.99
2018-12-06T05:36:01.848Z,3.00
2018-12-06T05:37:01.840Z,2.99
2018-12-06T05:38:01.831Z,3.02
2018-12-06T05:39:01.816Z,3.05
2018-12-06T05:40:01.905Z,3.05
2018-12-06T05:41:01.794Z,2.99
2018-12-06T05:42:01.785Z,3.06
2018-12-06T05:43:01.775Z,2.99
2018-12-06T05:44:01.761Z,3.10
2018-12-06T05:45:01.758Z,3.17
2018-12-06T05:46:01.747Z,3.06
2018-12-06T05:47:01.730Z,3.08
2018-12-06T05:48:01.719Z,3.08
2018-12-06T05:49:01.705Z,3.17
2018-12-06T05:50:01.701Z,3.18
2018-12-06T05:51:01.692Z,3.18
2018-12-06T05:52:01.677Z,3.31
2018-12-06T05:53:01.672Z,3.26
2018-12-06T05:54:01.658Z,3.26
2018-12-06T05:55:01.655Z,3.24
2018-12-06T05:56:01.641Z,3.18
2018-12-06T05:57:01.621Z,3.24
2018-12-06T05:58:01.618Z,3.33
2018-12-06T05:59:01.609Z,3.21
2018-12-06T06:00:01.597Z,3.31
2018-12-06T06:01:01.585Z,3.23
2018-12-06T06:02:01.577Z,3.33
2018-12-06T06:03:01.569Z,3.29
2018-12-06T06:04:01.561Z,3.31
2018-12-06T06:05:01.539Z,3.36
2018-12-06T06:06:01.538Z,3.33
2018-12-06T06:07:01.524Z,3.29
2018-12-06T06:08:01.509Z,3.31
2018-12-06T06:09:01.591Z,3.29
2018-12-06T06:10:01.488Z,3.32
2018-12-06T06:11:01.481Z,3.31
2018-12-06T06:12:01.467Z,3.35
2018-12-06T06:13:01.455Z,3.40
2018-12-06T06:14:01.445Z,3.31
2018-12-06T06:15:01.497Z,3.31
2018-12-06T06:16:01.425Z,3.28
2018-12-06T06:17:01.415Z,3.35
2018-12-06T06:18:01.408Z,3.33
2018-12-06T06:19:01.395Z,3.31
2018-12-06T06:20:01.383Z,3.39
2018-12-06T06:21:01.373Z,3.31
2018-12-06T06:22:01.371Z,3.35
2018-12-06T06:23:01.351Z,3.29
2018-12-06T06:24:01.346Z,3.36
2018-12-06T06:25:01.336Z,3.43
2018-12-06T06:26:01.325Z,3.40
2018-12-06T06:27:01.309Z,3.52
2018-12-06T06:28:01.305Z,3.45
2018-12-06T06:29:01.291Z,3.47
2018-12-06T06:30:01.282Z,3.54
2018-12-06T06:31:01.351Z,3.54
2018-12-06T06:32:01.255Z,3.50
2018-12-06T06:33:01.241Z,3.57
2018-12-06T06:34:01.237Z,3.70
2018-12-06T06:35:01.225Z,3.76
2018-12-06T06:36:01.221Z,3.78
2018-12-06T06:37:01.205Z,3.79
2018-12-06T06:38:01.191Z,3.76
2018-12-06T06:39:01.183Z,3.68
2018-12-06T06:40:01.173Z,3.70
2018-12-06T06:41:01.158Z,3.73
2018-12-06T06:42:01.151Z,3.84
2018-12-06T06:43:01.139Z,3.87
2018-12-06T06:44:01.134Z,3.90
2018-12-06T06:45:01.118Z,4.02
2018-12-06T06:46:01.107Z,3.94
2018-12-06T06:47:01.100Z,3.93
2018-12-06T06:48:01.085Z,3.88
2018-12-06T06:49:01.084Z,3.98
2018-12-06T06:50:01.075Z,3.97
2018-12-06T06:51:01.055Z,3.93
2018-12-06T06:52:01.050Z,3.97
2018-12-06T06:53:01.038Z,4.00
2018-12-06T06:54:01.021Z,3.98
2018-12-06T06:55:01.014Z,3.84
2018-12-06T06:56:01.009Z,3.76
2018-12-06T06:57:00.995Z,3.83
2018-12-06T06:58:00.981Z,3.75
2018-12-06T06:59:00.969Z,3.73
2018-12-06T07:00:00.966Z,3.68
2018-12-06T07:01:00.947Z,3.69
2018-12-06T07:02:00.938Z,3.60
2018-12-06T07:03:00.928Z,3.73
2018-12-06T07:04:00.917Z,3.60
2018-12-06T07:05:00.911Z,3.69
2018-12-06T07:06:00.895Z,3.61
2018-12-06T07:07:00.895Z,3.62
2018-12-06T07:08:00.874Z,3.62
2018-12-06T07:09:00.871Z,3.69
2018-12-06T07:10:00.859Z,3.61
2018-12-06T07:11:00.921Z,3.70
2018-12-06T07:12:00.833Z,3.65
2018-12-06T07:13:00.826Z,3.62
2018-12-06T07:14:00.814Z,3.70
2018-12-06T07:15:00.799Z,3.72
2018-12-06T07:16:00.789Z,3.66
2018-12-06T07:17:00.787Z,3.69
2018-12-06T07:18:00.777Z,3.62
2018-12-06T07:19:00.770Z,3.65
2018-12-06T07:20:00.762Z,3.73
2018-12-06T07:21:00.743Z,3.70
2018-12-06T07:22:00.729Z,3.62
2018-12-06T07:23:01.042Z,3.76
2018-12-06T07:24:00.713Z,3.75
2018-12-06T07:25:00.701Z,3.70
2018-12-06T07:26:00.688Z,3.72
2018-12-06T07:27:00.676Z,3.73
2018-12-06T07:28:00.669Z,3.75
2018-12-06T07:29:00.655Z,3.75
2018-12-06T07:30:00.644Z,3.69
2018-12-06T07:31:00.638Z,3.75
2018-12-06T07:32:00.624Z,3.79
2018-12-06T07:33:00.611Z,3.73
2018-12-06T07:34:00.599Z,3.73
2018-12-06T07:35:00.595Z,3.75
2018-12-06T07:36:00.581Z,3.75
2018-12-06T07:37:00.571Z,3.72
2018-12-06T07:38:00.560Z,3.76
2018-12-06T07:39:00.549Z,3.80
2018-12-06T07:40:00.541Z,3.80
2018-12-06T07:41:00.531Z,3.88
2018-12-06T07:42:00.519Z,3.76
2018-12-06T07:43:00.508Z,3.80
2018-12-06T07:44:00.499Z,3.79
2018-12-06T07:45:00.499Z,3.80
2018-12-06T07:46:00.478Z,3.83
2018-12-06T07:47:00.465Z,3.91
2018-12-06T07:48:00.459Z,3.87
2018-12-06T07:49:00.450Z,3.94
2018-12-06T07:50:00.434Z,3.91
2018-12-06T07:51:00.434Z,3.90
2018-12-06T07:52:00.423Z,3.83
2018-12-06T07:53:00.399Z,3.86
2018-12-06T07:54:00.391Z,3.94
2018-12-06T07:55:00.383Z,3.91
2018-12-06T07:56:00.367Z,3.91
2018-12-06T07:57:00.357Z,3.88
2018-12-06T07:58:00.349Z,3.88
2018-12-06T07:59:00.339Z,3.90
2018-12-06T08:00:00.330Z,3.88
2018-12-06T08:01:00.319Z,3.88
2018-12-06T08:02:00.301Z,3.87
2018-12-06T08:03:00.297Z,3.86
2018-12-06T08:04:00.283Z,3.91
2018-12-06T08:05:00.275Z,4.05
2018-12-06T08:06:00.269Z,4.32
2018-12-06T08:07:00.255Z,4.30
2018-12-06T08:08:00.239Z,4.09
2018-12-06T08:09:00.227Z,4.04
2018-12-06T08:10:00.215Z,3.93
2018-12-06T08:11:00.213Z,3.96
2018-12-06T08:12:00.208Z,3.96
2018-12-06T08:13:00.189Z,3.98
2018-12-06T08:14:00.184Z,3.98
2018-12-06T08:15:00.173Z,3.97
2018-12-06T08:16:00.186Z,3.97
2018-12-06T08:17:00.153Z,4.06
2018-12-06T08:18:00.135Z,4.09
2018-12-06T08:19:00.129Z,4.11
2018-12-06T08:20:00.114Z,4.14
2018-12-06T08:21:00.099Z,4.08
2018-12-06T08:22:00.101Z,4.15
2018-12-06T08:23:00.081Z,4.11
2018-12-06T08:24:00.073Z,4.09
2018-12-06T08:25:00.059Z,4.12
2018-12-06T08:26:00.048Z,4.05
2018-12-06T08:27:00.041Z,4.15
2018-12-06T08:28:00.028Z,4.11
2018-12-06T08:29:00.018Z,4.11
2018-12-06T08:30:00.009Z,4.11
2018-12-06T08:30:59.994Z,4.16
2018-12-06T08:31:59.989Z,4.15
2018-12-06T08:32:59.979Z,4.18
2018-12-06T08:34:06.146Z,4.22
2018-12-06T08:35:00.950Z,4.18
2018-12-06T08:35:59.948Z,4.18
2018-12-06T08:36:59.934Z,4.22
2018-12-06T08:37:59.921Z,4.15
2018-12-06T08:38:59.915Z,4.16
2018-12-06T08:40:00.121Z,4.29
2018-12-06T08:40:59.883Z,4.27
2018-12-06T08:41:59.879Z,4.23
2018-12-06T08:42:59.873Z,4.26
2018-12-06T08:43:59.859Z,4.22
2018-12-06T08:44:59.847Z,4.24
2018-12-06T08:45:59.835Z,4.30
2018-12-06T08:46:59.825Z,4.22
2018-12-06T08:47:59.815Z,4.32
2018-12-06T08:49:02.985Z,4.36
2018-12-06T08:49:59.797Z,4.32
2018-12-06T08:50:59.785Z,4.33
2018-12-06T08:51:59.770Z,4.34
2018-12-06T08:52:59.759Z,4.32
2018-12-06T08:53:59.749Z,4.44
2018-12-06T08:54:59.747Z,4.47
2018-12-06T08:55:59.733Z,4.30
2018-12-06T08:56:59.717Z,4.42
2018-12-06T08:57:59.705Z,4.36
2018-12-06T08:58:59.697Z,4.36
2018-12-06T08:59:59.693Z,4.40
2018-12-06T09:00:59.673Z,4.44
2018-12-06T09:01:59.661Z,4.41
2018-12-06T09:02:59.647Z,4.54
2018-12-06T09:03:59.647Z,4.58
2018-12-06T09:04:59.643Z,4.50
2018-12-06T09:05:59.628Z,4.59
2018-12-06T09:06:59.609Z,4.50
2018-12-06T09:07:59.599Z,4.58
2018-12-06T09:08:59.587Z,4.63
2018-12-06T09:09:59.579Z,4.65
2018-12-06T09:10:59.571Z,4.63
2018-12-06T09:11:59.559Z,4.60
2018-12-06T09:12:59.545Z,4.65
2018-12-06T09:13:59.538Z,4.65
2018-12-06T09:14:59.523Z,4.75
2018-12-06T09:15:59.517Z,4.66
2018-12-06T09:16:59.501Z,4.65
2018-12-06T09:17:59.493Z,4.69
2018-12-06T09:18:59.477Z,4.69
2018-12-06T09:19:59.469Z,4.67
2018-12-06T09:20:59.460Z,4.77
2018-12-06T09:21:59.445Z,4.73
2018-12-06T09:22:59.437Z,4.69
2018-12-06T09:23:59.425Z,4.73
2018-12-06T09:24:59.417Z,4.84
2018-12-06T09:25:59.402Z,4.73
2018-12-06T09:26:59.393Z,4.77
2018-12-06T09:27:59.381Z,4.80
2018-12-06T09:28:59.369Z,4.82
2018-12-06T09:29:59.373Z,4.78
2018-12-06T09:31:01.183Z,4.80
2018-12-06T09:31:59.338Z,4.86
2018-12-06T09:32:59.335Z,4.80
2018-12-06T09:33:59.318Z,4.85
2018-12-06T09:34:59.306Z,4.84
2018-12-06T09:35:59.293Z,4.89
2018-12-06T09:36:59.286Z,4.89
2018-12-06T09:37:59.278Z,4.91
2018-12-06T09:38:59.263Z,4.94
2018-12-06T09:39:59.253Z,4.88
2018-12-06T09:40:59.239Z,4.89
2018-12-06T09:41:59.234Z,4.91
2018-12-06T09:42:59.225Z,4.96
2018-12-06T09:43:59.214Z,4.92
2018-12-06T09:44:59.199Z,4.96
2018-12-06T09:45:59.191Z,4.99
2018-12-06T09:46:59.209Z,4.97
2018-12-06T09:47:59.171Z,5.00
2018-12-06T09:48:59.153Z,4.97
2018-12-06T09:49:59.145Z,4.99
2018-12-06T09:50:59.237Z,5.00
2018-12-06T09:51:59.119Z,5.02
2018-12-06T09:52:59.113Z,5.02
2018-12-06T09:53:59.103Z,4.99
2018-12-06T09:54:59.096Z,5.00
2018-12-06T09:55:59.087Z,5.03
2018-12-06T09:56:59.074Z,5.00
2018-12-06T09:57:59.069Z,5.02
2018-12-06T09:58:59.049Z,5.03
2018-12-06T09:59:59.042Z,4.99
2018-12-06T10:00:59.039Z,5.04
2018-12-06T10:01:59.022Z,5.00
2018-12-06T10:02:59.008Z,5.06
2018-12-06T10:03:59.000Z,5.09
2018-12-06T10:04:58.989Z,5.09
2018-12-06T10:05:58.974Z,5.07
2018-12-06T10:06:58.964Z,5.12
2018-12-06T10:07:58.952Z,5.13
2018-12-06T10:08:58.940Z,5.17
2018-12-06T10:09:58.928Z,5.15
2018-12-06T10:10:58.916Z,5.17
2018-12-06T10:11:58.910Z,5.10
2018-12-06T10:12:58.899Z,5.17
2018-12-06T10:13:58.893Z,5.18
2018-12-06T10:14:58.885Z,5.10
2018-12-06T10:15:58.865Z,5.09
2018-12-06T10:16:58.860Z,5.20
2018-12-06T10:17:58.844Z,5.18
2018-12-06T10:18:58.834Z,5.13
2018-12-06T10:19:58.821Z,5.17
2018-12-06T10:20:58.812Z,5.15
2018-12-06T10:21:58.801Z,5.10
2018-12-06T10:22:58.795Z,5.13
2018-12-06T10:23:58.777Z,5.17
2018-12-06T10:24:58.774Z,5.31
2018-12-06T10:25:58.758Z,5.17
2018-12-06T10:26:58.746Z,5.15
2018-12-06T10:27:58.737Z,5.27
2018-12-06T10:28:58.727Z,5.24
2018-12-06T10:29:58.715Z,5.20
2018-12-06T10:30:58.702Z,5.13
2018-12-06T10:31:58.693Z,5.25
2018-12-06T10:32:58.681Z,5.22
2018-12-06T10:33:58.669Z,5.13
2018-12-06T10:34:58.665Z,5.12
2018-12-06T10:35:58.649Z,5.21
2018-12-06T10:36:58.640Z,5.13
2018-12-06T10:37:58.631Z,5.18
2018-12-06T10:38:58.623Z,5.27
2018-12-06T10:39:58.618Z,5.18
2018-12-06T10:40:58.594Z,5.27
2018-12-06T10:41:58.584Z,5.13
2018-12-06T10:42:58.576Z,5.20
2018-12-06T10:43:58.563Z,5.25
2018-12-06T10:44:58.555Z,5.25
2018-12-06T10:45:58.544Z,5.21
2018-12-06T10:46:58.532Z,5.24
2018-12-06T10:47:58.520Z,5.30
2018-12-06T10:48:58.516Z,5.27
2018-12-06T10:49:58.501Z,5.31
2018-12-06T10:50:58.491Z,5.20
2018-12-06T10:51:58.480Z,5.36
2018-12-06T10:52:58.470Z,5.31
2018-12-06T10:53:58.457Z,5.27
2018-12-06T10:54:58.450Z,5.28
2018-12-06T10:55:58.443Z,5.36
2018-12-06T10:56:58.427Z,5.39
2018-12-06T10:57:58.413Z,5.36
2018-12-06T10:58:58.402Z,5.35
2018-12-06T10:59:58.401Z,5.48
2018-12-06T11:00:58.386Z,5.38
2018-12-06T11:01:58.436Z,5.40
2018-12-06T11:02:58.363Z,5.40
2018-12-06T11:03:58.356Z,5.46
2018-12-06T11:04:58.338Z,5.45
2018-12-06T11:05:58.331Z,5.42
2018-12-06T11:06:58.320Z,5.49
2018-12-06T11:07:58.309Z,5.48
2018-12-06T11:08:58.298Z,5.49
2018-12-06T11:09:58.286Z,5.48
2018-12-06T11:10:58.275Z,5.57
2018-12-06T11:11:58.266Z,5.60
2018-12-06T11:12:58.254Z,5.64
2018-12-06T11:13:58.252Z,5.58
2018-12-06T11:14:58.237Z,5.56
2018-12-06T11:15:58.221Z,5.58
2018-12-06T11:16:58.223Z,5.63
2018-12-06T11:17:58.206Z,5.60
2018-12-06T11:18:58.190Z,5.60
2018-12-06T11:19:58.180Z,5.58
2018-12-06T11:20:58.174Z,5.58
2018-12-06T11:21:58.162Z,5.61
2018-12-06T11:22:58.144Z,5.71
2018-12-06T11:23:58.137Z,5.67
2018-12-06T11:24:58.128Z,5.58
2018-12-06T11:25:58.125Z,5.65
2018-12-06T11:26:58.108Z,5.64
2018-12-06T11:27:58.094Z,5.63
2018-12-06T11:28:58.085Z,5.64
2018-12-06T11:29:58.078Z,5.63
2018-12-06T11:30:58.062Z,5.68
2018-12-06T11:31:58.050Z,5.79
2018-12-06T11:32:58.040Z,5.76
2018-12-06T11:33:58.030Z,5.75
2018-12-06T11:34:58.035Z,5.74
2018-12-06T11:35:58.017Z,5.78
2018-12-06T11:36:57.995Z,5.76
2018-12-06T11:37:57.987Z,5.76
2018-12-06T11:38:57.982Z,5.74
2018-12-06T11:39:57.968Z,5.78
2018-12-06T11:40:57.953Z,5.79
2018-12-06T11:41:57.942Z,5.79
2018-12-06T11:42:57.928Z,5.81
2018-12-06T11:43:57.919Z,5.85
2018-12-06T11:44:57.911Z,5.79
2018-12-06T11:45:57.913Z,5.82
2018-12-06T11:46:57.893Z,5.83
2018-12-06T11:47:57.881Z,5.90
2018-12-06T11:48:57.871Z,5.83
2018-12-06T11:49:57.854Z,5.90
2018-12-06T11:50:57.846Z,5.86
2018-12-06T11:51:57.840Z,5.90
2018-12-06T11:52:57.824Z,5.94
2018-12-06T11:53:57.812Z,5.93
2018-12-06T11:54:57.812Z,5.90
2018-12-06T11:55:57.801Z,5.89
2018-12-06T11:56:57.790Z,5.96
2018-12-06T11:57:57.796Z,5.86
2018-12-06T11:58:57.763Z,6.03
2018-12-06T11:59:57.751Z,5.99
2018-12-06T12:00:57.742Z,6.01
2018-12-06T12:01:57.728Z,6.00
2018-12-06T12:02:57.722Z,6.01
2018-12-06T12:03:57.712Z,6.11
2018-12-06T12:04:57.702Z,6.12
2018-12-06T12:05:58.741Z,6.09
2018-12-06T12:06:57.676Z,6.09
2018-12-06T12:07:57.670Z,6.08
2018-12-06T12:08:57.661Z,6.11
2018-12-06T12:09:57.643Z,6.08
2018-12-06T12:10:57.642Z,6.18
2018-12-06T12:11:57.622Z,6.14
2018-12-06T12:12:57.620Z,6.14
2018-12-06T12:13:57.604Z,6.04
2018-12-06T12:14:57.596Z,6.14
2018-12-06T12:15:57.579Z,6.21
2018-12-06T12:16:57.574Z,6.22
2018-12-06T12:17:57.563Z,6.11
2018-12-06T12:18:57.545Z,6.14
2018-12-06T12:19:57.536Z,6.31
2018-12-06T12:20:57.532Z,6.27
2018-12-06T12:21:57.512Z,6.30
2018-12-06T12:22:57.508Z,6.33
2018-12-06T12:23:57.504Z,6.30
2018-12-06T12:24:57.484Z,6.31
2018-12-06T12:25:57.476Z,6.30
2018-12-06T12:26:57.462Z,6.37
2018-12-06T12:27:57.453Z,6.33
2018-12-06T12:28:57.438Z,6.31
2018-12-06T12:29:57.434Z,6.44
2018-12-06T12:30:57.432Z,6.30
2018-12-06T12:31:57.413Z,6.31
2018-12-06T12:32:57.394Z,6.33
2018-12-06T12:33:57.390Z,6.33
2018-12-06T12:34:57.378Z,6.34
2018-12-06T12:35:57.362Z,6.34
2018-12-06T12:36:57.351Z,6.34
2018-12-06T12:37:57.342Z,6.36
2018-12-06T12:38:57.330Z,6.30
2018-12-06T12:39:57.319Z,6.30
2018-12-06T12:40:57.314Z,6.31
2018-12-06T12:41:57.299Z,6.34
2018-12-06T12:42:57.292Z,6.28
2018-12-06T12:43:57.277Z,6.37
2018-12-06T12:44:57.262Z,6.37
2018-12-06T12:45:57.257Z,6.36
2018-12-06T12:46:57.244Z,6.37
2018-12-06T12:47:57.240Z,6.34
2018-12-06T12:48:57.229Z,6.34
2018-12-06T12:49:57.214Z,6.31
2018-12-06T12:50:57.200Z,6.37
2018-12-06T12:51:57.190Z,6.37
2018-12-06T12:52:57.180Z,6.36
2018-12-06T12:53:57.174Z,6.36
2018-12-06T12:54:57.164Z,6.36
2018-12-06T12:55:57.150Z,6.38
2018-12-06T12:56:57.135Z,6.31
2018-12-06T12:57:57.132Z,6.28
2018-12-06T12:58:57.117Z,6.37
2018-12-06T12:59:57.106Z,6.33
2018-12-06T13:00:57.092Z,6.37
2018-12-06T13:01:57.082Z,6.33
2018-12-06T13:02:57.076Z,6.31
2018-12-06T13:03:57.059Z,6.37
2018-12-06T13:04:57.048Z,6.36
2018-12-06T13:05:57.088Z,6.38
2018-12-06T13:06:57.026Z,6.37
2018-12-06T13:07:57.021Z,6.38
2018-12-06T13:08:57.002Z,6.43
2018-12-06T13:09:57.017Z,6.40
2018-12-06T13:10:56.980Z,6.36
2018-12-06T13:11:56.974Z,6.33
2018-12-06T13:12:56.974Z,6.31
2018-12-06T13:13:56.950Z,6.30
2018-12-06T13:14:56.936Z,6.37
2018-12-06T13:15:56.929Z,6.40
2018-12-06T13:16:56.917Z,6.44
2018-12-06T13:17:56.910Z,6.33